createdAt,value
2018-01-24T00:02:09.054Z,11.20
2018-01-24T00:07:59.563Z,11.20
2018-01-24T00:10:49.242Z,11.20
2018-01-24T00:13:17.629Z,11.20
2018-01-24T00:15:46.282Z,11.20
2018-01-24T00:18:14.514Z,11.20
2018-01-24T00:20:42.981Z,11.20
2018-01-24T00:23:11.210Z,11.20
2018-01-24T00:25:39.067Z,11.20
2018-01-24T00:28:07.638Z,11.20
2018-01-24T00:30:35.891Z,11.20
2018-01-24T00:33:03.751Z,11.20
2018-01-24T00:35:31.251Z,11.10
2018-01-24T00:37:59.515Z,11.10
2018-01-24T00:40:27.771Z,11.10
2018-01-24T00:42:56.371Z,11.10
2018-01-24T00:45:24.635Z,11.10
2018-01-24T00:47:52.153Z,11.10
2018-01-24T00:50:19.962Z,11.10
2018-01-24T00:52:47.819Z,11.10
2018-01-24T00:55:16.823Z,11.10
2018-01-24T00:57:44.432Z,11.00
2018-01-24T01:00:11.994Z,11.00
2018-01-24T01:02:39.554Z,11.00
2018-01-24T01:05:07.782Z,11.00
2018-01-24T01:07:36.020Z,10.90
2018-01-24T01:10:03.543Z,10.80
2018-01-24T01:12:31.340Z,10.90
2018-01-24T01:15:00.367Z,10.90
2018-01-24T01:17:28.240Z,10.90
2018-01-24T01:19:58.996Z,10.80
2018-01-24T01:22:26.476Z,10.80
2018-01-24T01:24:53.939Z,10.90
2018-01-24T01:27:21.801Z,10.90
2018-01-24T01:29:49.666Z,10.90
2018-01-24T01:32:17.939Z,10.90
2018-01-24T01:34:46.574Z,10.90
2018-01-24T01:37:14.871Z,10.90
2018-01-24T01:39:43.125Z,10.90
2018-01-24T01:42:11.713Z,10.90
2018-01-24T01:44:39.257Z,10.90
2018-01-24T01:47:06.745Z,10.90
2018-01-24T01:49:35.252Z,10.90
2018-01-24T01:52:03.559Z,11.00
2018-01-24T01:54:31.500Z,11.00
2018-01-24T01:57:00.441Z,11.00
2018-01-24T01:59:27.930Z,11.00
2018-01-24T02:01:55.431Z,11.00
2018-01-24T02:04:23.626Z,11.10
2018-01-24T02:06:51.496Z,11.00
2018-01-24T02:09:19.389Z,11.10
2018-01-24T02:11:47.978Z,11.00
2018-01-24T02:14:16.211Z,11.00
2018-01-24T02:16:44.099Z,11.10
2018-01-24T02:19:12.271Z,11.10
2018-01-24T02:21:40.147Z,11.10
2018-01-24T02:24:08.383Z,11.20
2018-01-24T02:26:36.583Z,11.20
2018-01-24T02:29:04.836Z,11.20
2018-01-24T02:31:33.095Z,11.20
2018-01-24T02:34:01.264Z,11.20
2018-01-24T02:36:29.920Z,11.20
2018-01-24T02:39:09.787Z,11.30
2018-01-24T02:41:37.306Z,11.30
2018-01-24T02:44:05.175Z,11.30
2018-01-24T02:46:33.430Z,11.30
2018-01-24T02:49:01.356Z,11.30
2018-01-24T02:51:29.236Z,11.30
2018-01-24T02:53:57.060Z,8.80
2018-01-24T02:56:25.302Z,11.40
2018-01-24T02:58:52.803Z,11.40
2018-01-24T03:01:21.089Z,11.40
2018-01-24T03:03:48.607Z,11.30
2018-01-24T03:06:17.011Z,11.30
2018-01-24T03:08:44.509Z,11.30
2018-01-24T03:11:12.421Z,11.30
2018-01-24T03:13:40.301Z,11.20
2018-01-24T03:16:08.991Z,11.30
2018-01-24T03:18:36.471Z,11.30
2018-01-24T03:21:04.025Z,11.30
2018-01-24T03:23:31.861Z,11.30
2018-01-24T03:26:00.115Z,11.30
2018-01-24T03:28:27.991Z,11.30
2018-01-24T03:30:56.570Z,11.30
2018-01-24T03:33:25.020Z,11.30
2018-01-24T03:35:53.309Z,11.30
2018-01-24T03:38:21.568Z,11.30
2018-01-24T03:40:49.443Z,11.30
2018-01-24T03:43:17.319Z,11.30
2018-01-24T03:45:46.643Z,11.30
2018-01-24T03:48:14.887Z,11.30
2018-01-24T03:50:42.826Z,11.30
2018-01-24T03:53:10.677Z,11.30
2018-01-24T03:55:38.491Z,11.30
2018-01-24T03:58:06.423Z,11.40
2018-01-24T04:00:34.198Z,11.40
2018-01-24T04:03:01.751Z,11.40
2018-01-24T04:05:30.442Z,11.50
2018-01-24T04:07:57.996Z,11.50
2018-01-24T04:10:26.607Z,11.50
2018-01-24T04:12:54.468Z,11.50
2018-01-24T04:15:22.384Z,11.60
2018-01-24T04:17:50.284Z,11.50
2018-01-24T04:20:17.760Z,11.50
2018-01-24T04:22:45.661Z,11.60
2018-01-24T04:25:14.005Z,11.60
2018-01-24T04:27:42.266Z,11.60
2018-01-24T04:30:10.482Z,11.60
2018-01-24T04:32:38.356Z,11.60
2018-01-24T04:35:06.616Z,11.60
2018-01-24T04:37:35.179Z,11.60
2018-01-24T04:40:03.460Z,11.60
2018-01-24T04:42:31.328Z,11.60
2018-01-24T04:44:59.248Z,11.60
2018-01-24T04:47:26.726Z,11.60
2018-01-24T04:49:54.610Z,11.60
2018-01-24T04:52:23.121Z,11.60
2018-01-24T04:54:50.990Z,11.70
2018-01-24T04:57:18.474Z,11.70
2018-01-24T04:59:46.238Z,11.60
2018-01-24T05:02:14.115Z,11.60
2018-01-24T05:04:41.995Z,11.60
2018-01-24T05:07:09.880Z,11.70
2018-01-24T05:09:37.758Z,11.70
2018-01-24T05:12:05.639Z,11.70
2018-01-24T05:14:33.457Z,11.70
2018-01-24T05:17:00.938Z,11.80
2018-01-24T05:19:29.173Z,11.80
2018-01-24T05:21:57.736Z,11.80
2018-01-24T05:24:25.239Z,11.80
2018-01-24T05:26:52.727Z,11.80
2018-01-24T05:29:21.163Z,11.80
2018-01-24T05:31:49.770Z,11.90
2018-01-24T05:34:18.027Z,11.90
2018-01-24T05:36:46.265Z,11.90
2018-01-24T05:39:14.554Z,11.90
2018-01-24T05:41:42.444Z,11.90
2018-01-24T05:44:10.257Z,11.90
2018-01-24T05:46:38.518Z,10.70
2018-01-24T05:49:06.011Z,11.90
2018-01-24T05:51:34.299Z,11.90
2018-01-24T05:54:02.537Z,12.00
2018-01-24T05:56:30.456Z,12.00
2018-01-24T05:58:58.304Z,11.90
2018-01-24T06:01:26.567Z,12.00
2018-01-24T06:03:54.602Z,11.90
2018-01-24T06:06:22.542Z,11.90
2018-01-24T06:08:50.049Z,12.00
2018-01-24T06:11:18.287Z,11.90
2018-01-24T06:13:46.547Z,12.00
2018-01-24T06:16:15.183Z,12.00
2018-01-24T06:18:42.894Z,12.00
2018-01-24T06:21:10.375Z,11.90
2018-01-24T06:23:37.871Z,11.90
2018-01-24T06:26:06.187Z,11.90
2018-01-24T06:28:34.815Z,11.90
2018-01-24T06:31:02.747Z,11.90
2018-01-24T06:33:31.422Z,11.90
2018-01-24T06:35:59.988Z,11.90
2018-01-24T06:38:27.847Z,11.90
2018-01-24T06:40:55.755Z,12.00
2018-01-24T06:43:23.851Z,11.90
2018-01-24T06:45:51.801Z,12.00
2018-01-24T06:48:19.694Z,12.00
2018-01-24T06:50:48.351Z,12.00
2018-01-24T06:53:16.228Z,12.00
2018-01-24T06:55:43.696Z,12.00
2018-01-24T06:58:11.592Z,12.00
2018-01-24T07:00:39.475Z,12.00
2018-01-24T07:03:07.343Z,12.00
2018-01-24T07:05:35.222Z,12.10
2018-01-24T07:08:03.189Z,12.00
2018-01-24T07:10:31.071Z,12.10
2018-01-24T07:13:10.827Z,12.10
2018-01-24T07:15:38.338Z,12.10
2018-01-24T07:18:06.225Z,12.20
2018-01-24T07:20:34.483Z,12.20
2018-01-24T07:23:02.800Z,12.10
2018-01-24T07:25:50.826Z,12.20
2018-01-24T07:28:21.026Z,12.20
2018-01-24T07:30:48.901Z,12.20
2018-01-24T07:33:16.400Z,12.20
2018-01-24T07:35:44.689Z,12.20
2018-01-24T07:38:12.956Z,12.10
2018-01-24T07:40:40.880Z,12.10
2018-01-24T07:43:08.387Z,12.10
2018-01-24T07:45:35.894Z,12.10
2018-01-24T07:48:03.795Z,12.10
2018-01-24T07:50:31.891Z,12.10
2018-01-24T07:53:00.316Z,12.10
2018-01-24T07:55:27.876Z,12.10
2018-01-24T07:57:56.154Z,12.10
2018-01-24T08:00:23.690Z,12.00
2018-01-24T08:02:51.920Z,12.10
2018-01-24T08:05:19.750Z,12.10
2018-01-24T08:07:47.629Z,12.00
2018-01-24T08:10:15.858Z,12.10
2018-01-24T08:12:43.760Z,12.10
2018-01-24T08:15:11.998Z,12.10
2018-01-24T08:17:39.901Z,12.10
2018-01-24T08:20:07.460Z,12.10
2018-01-24T08:22:34.939Z,12.10
2018-01-24T08:25:03.167Z,12.10
2018-01-24T08:27:30.667Z,12.10
2018-01-24T08:29:58.546Z,12.10
2018-01-24T08:32:27.054Z,12.10
2018-01-24T08:34:56.495Z,12.10
2018-01-24T08:37:26.002Z,12.10
2018-01-24T08:39:54.648Z,12.20
2018-01-24T08:42:22.565Z,12.20
2018-01-24T08:44:50.226Z,12.20
2018-01-24T08:47:18.087Z,12.30
2018-01-24T08:49:45.955Z,12.30
2018-01-24T08:52:13.621Z,12.30
2018-01-24T08:54:41.615Z,12.30
2018-01-24T08:57:09.919Z,12.30
2018-01-24T08:59:38.231Z,12.40
2018-01-24T09:02:05.694Z,12.40
2018-01-24T09:04:33.225Z,12.40
2018-01-24T09:07:01.491Z,12.40
2018-01-24T09:09:29.826Z,12.40
2018-01-24T09:11:58.066Z,12.50
2018-01-24T09:14:25.546Z,12.50
2018-01-24T09:16:53.020Z,12.50
2018-01-24T09:19:21.067Z,12.50
2018-01-24T09:21:49.303Z,12.50
2018-01-24T09:24:17.171Z,12.50
2018-01-24T09:26:45.146Z,12.50
2018-01-24T09:29:13.706Z,12.50
2018-01-24T09:31:41.176Z,12.50
2018-01-24T09:34:09.486Z,12.50
2018-01-24T09:36:37.864Z,12.50
2018-01-24T09:39:06.101Z,12.50
2018-01-24T09:41:34.343Z,12.50
2018-01-24T09:44:02.283Z,12.60
2018-01-24T09:46:30.975Z,12.70
2018-01-24T09:48:58.456Z,12.70
2018-01-24T09:51:26.665Z,12.70
2018-01-24T09:53:54.973Z,12.80
2018-01-24T09:56:23.226Z,12.80
2018-01-24T09:58:51.083Z,12.80
2018-01-24T10:01:19.007Z,12.80
2018-01-24T10:03:46.919Z,12.80
2018-01-24T10:06:15.160Z,12.90
2018-01-24T10:08:43.128Z,12.90
2018-01-24T10:11:11.018Z,13.00
2018-01-24T10:13:38.896Z,13.00
2018-01-24T10:16:07.119Z,12.90
2018-01-24T10:18:35.355Z,12.90
2018-01-24T10:21:02.875Z,12.90
2018-01-24T10:23:30.358Z,12.80
2018-01-24T10:25:58.646Z,12.80
2018-01-24T10:28:26.767Z,12.80
2018-01-24T10:30:55.120Z,12.90
2018-01-24T10:33:23.294Z,12.90
2018-01-24T10:35:51.166Z,13.00
2018-01-24T10:38:19.041Z,13.00
2018-01-24T10:40:46.519Z,13.00
2018-01-24T10:43:14.604Z,13.10
2018-01-24T10:45:43.749Z,13.10
2018-01-24T10:48:11.271Z,13.20
2018-01-24T10:50:39.541Z,13.20
2018-01-24T10:53:07.587Z,13.20
2018-01-24T10:55:35.072Z,13.30
2018-01-24T10:58:02.599Z,13.30
2018-01-24T11:00:30.906Z,13.30
2018-01-24T11:02:58.335Z,13.30
2018-01-24T11:05:26.199Z,13.40
2018-01-24T11:07:55.077Z,13.30
2018-01-24T11:10:23.332Z,13.30
2018-01-24T11:12:51.979Z,13.40
2018-01-24T11:15:19.855Z,13.40
2018-01-24T11:17:48.413Z,13.40
2018-01-24T11:20:16.292Z,13.50
2018-01-24T11:22:44.146Z,13.50
2018-01-24T11:25:12.020Z,13.50
2018-01-24T11:27:40.631Z,13.50
2018-01-24T11:30:08.544Z,13.50
2018-01-24T11:32:36.059Z,13.50
2018-01-24T11:35:04.354Z,13.50
2018-01-24T11:37:32.621Z,13.60
2018-01-24T11:40:00.512Z,13.60
2018-01-24T11:42:28.778Z,13.60
2018-01-24T11:44:57.042Z,13.70
2018-01-24T11:47:24.602Z,13.70
2018-01-24T11:49:52.486Z,13.70
2018-01-24T11:52:20.436Z,13.90
2018-01-24T11:54:47.968Z,13.90
2018-01-24T11:57:15.867Z,14.00
2018-01-24T11:59:44.133Z,14.00
2018-01-24T12:02:12.265Z,14.00
2018-01-24T12:04:40.148Z,14.10
2018-01-24T12:07:08.094Z,14.10
2018-01-24T12:09:36.287Z,14.10
2018-01-24T12:12:04.535Z,14.20
2018-01-24T12:14:32.796Z,14.20
2018-01-24T12:17:00.659Z,14.20
2018-01-24T12:19:28.466Z,14.30
2018-01-24T12:21:56.364Z,14.30
2018-01-24T12:24:24.655Z,14.30
2018-01-24T12:26:52.573Z,14.30
2018-01-24T12:29:20.483Z,14.40
2018-01-24T12:31:48.363Z,14.40
2018-01-24T12:34:16.731Z,14.40
2018-01-24T12:36:45.007Z,14.40
2018-01-24T12:39:12.871Z,14.40
2018-01-24T12:41:41.131Z,14.40
2018-01-24T12:44:08.615Z,14.40
2018-01-24T12:46:36.093Z,14.40
2018-01-24T12:49:04.351Z,14.40
2018-01-24T12:51:32.252Z,14.40
2018-01-24T12:54:00.496Z,14.40
2018-01-24T12:56:28.540Z,14.40
2018-01-24T12:58:56.114Z,14.30
2018-01-24T13:01:23.644Z,14.30
2018-01-24T13:03:51.127Z,14.30
2018-01-24T13:06:19.375Z,14.30
2018-01-24T13:08:48.237Z,14.30
2018-01-24T13:11:16.156Z,14.20
2018-01-24T13:13:44.045Z,14.20
2018-01-24T13:16:12.047Z,14.20
2018-01-24T13:18:40.339Z,14.20
2018-01-24T13:21:08.593Z,14.00
2018-01-24T13:23:36.824Z,14.10
2018-01-24T13:26:04.780Z,14.10
2018-01-24T13:28:32.270Z,14.10
2018-01-24T13:31:00.539Z,14.10
2018-01-24T13:33:28.452Z,14.10
2018-01-24T13:35:56.378Z,14.10
2018-01-24T13:38:23.935Z,14.10
2018-01-24T13:40:51.869Z,14.10
2018-01-24T13:43:19.356Z,14.10
2018-01-24T13:45:47.626Z,14.10
2018-01-24T13:48:16.250Z,14.10
2018-01-24T13:50:44.771Z,14.10
2018-01-24T13:53:12.242Z,14.10
2018-01-24T13:55:40.650Z,14.10
2018-01-24T13:58:08.932Z,14.00
2018-01-24T14:00:38.011Z,14.00
2018-01-24T14:03:06.259Z,14.00
2018-01-24T14:05:34.159Z,14.00
2018-01-24T14:08:01.881Z,13.90
2018-01-24T14:10:29.792Z,13.90
2018-01-24T14:12:58.763Z,13.90
2018-01-24T14:15:26.637Z,13.80
2018-01-24T14:17:54.935Z,13.80
2018-01-24T14:20:23.224Z,13.70
2018-01-24T14:22:51.503Z,13.70
2018-01-24T14:25:19.812Z,13.80
2018-01-24T14:27:47.376Z,13.70
2018-01-24T14:30:15.625Z,13.70
2018-01-24T14:32:43.627Z,14.60
2018-01-24T14:35:11.648Z,13.60
2018-01-24T14:37:39.556Z,13.70
2018-01-24T14:40:07.115Z,13.60
2018-01-24T14:42:35.732Z,13.60
2018-01-24T14:45:04.708Z,13.60
2018-01-24T14:47:33.051Z,13.60
2018-01-24T14:50:01.023Z,13.60
2018-01-24T14:52:29.308Z,13.60
2018-01-24T14:54:57.639Z,13.60
2018-01-24T14:57:25.917Z,13.50
2018-01-24T14:59:55.068Z,13.40
2018-01-24T15:02:22.668Z,13.30
2018-01-24T15:04:50.588Z,13.30
2018-01-24T15:07:18.083Z,13.20
2018-01-24T15:09:45.567Z,13.10
2018-01-24T15:12:13.880Z,13.10
2018-01-24T15:14:41.759Z,13.10
2018-01-24T15:17:10.371Z,13.10
2018-01-24T15:19:37.851Z,13.10
2018-01-24T15:22:05.715Z,13.10
2018-01-24T15:24:33.652Z,13.10
2018-01-24T15:27:01.963Z,13.00
2018-01-24T15:29:30.477Z,13.20
2018-01-24T15:31:58.751Z,13.20
2018-01-24T15:34:26.726Z,13.20
2018-01-24T15:36:54.265Z,13.20
2018-01-24T15:39:22.267Z,13.20
2018-01-24T15:41:50.525Z,13.20
2018-01-24T15:44:18.779Z,13.10
2018-01-24T15:46:47.084Z,13.10
2018-01-24T15:49:15.725Z,13.10
2018-01-24T15:51:44.142Z,13.20
2018-01-24T15:54:11.649Z,13.20
2018-01-24T15:56:39.548Z,13.20
2018-01-24T15:59:07.454Z,13.20
2018-01-24T16:01:34.941Z,13.10
2018-01-24T16:04:02.419Z,13.10
2018-01-24T16:06:30.687Z,13.10
2018-01-24T16:08:58.695Z,13.20
2018-01-24T16:11:26.558Z,13.20
2018-01-24T16:13:55.180Z,13.10
2018-01-24T16:16:22.808Z,13.10
2018-01-24T16:18:50.700Z,13.10
2018-01-24T16:21:18.615Z,13.10
2018-01-24T16:23:46.526Z,13.10
2018-01-24T16:26:13.998Z,13.10
2018-01-24T16:28:42.342Z,13.10
2018-01-24T16:31:11.038Z,13.00
2018-01-24T16:33:39.639Z,13.00
2018-01-24T16:36:07.109Z,13.00
2018-01-24T16:38:34.603Z,13.10
2018-01-24T16:41:03.069Z,13.10
2018-01-24T16:43:30.519Z,13.10
2018-01-24T16:45:58.840Z,13.10
2018-01-24T16:48:27.116Z,13.10
2018-01-24T16:50:55.350Z,13.00
2018-01-24T16:53:23.629Z,13.10
2018-01-24T16:55:51.515Z,13.10
2018-01-24T16:58:19.378Z,13.10
2018-01-24T17:00:47.630Z,13.10
2018-01-24T17:03:15.878Z,13.10
2018-01-24T17:05:44.119Z,13.10
2018-01-24T17:08:12.379Z,13.10
2018-01-24T17:10:40.349Z,13.00
2018-01-24T17:13:08.233Z,13.00
2018-01-24T17:15:36.497Z,13.00
2018-01-24T17:18:04.432Z,13.10
2018-01-24T17:20:32.490Z,13.10
2018-01-24T17:23:00.823Z,13.00
2018-01-24T17:25:28.715Z,13.10
2018-01-24T17:27:57.200Z,13.10
2018-01-24T17:30:24.764Z,13.00
2018-01-24T17:32:53.031Z,13.00
2018-01-24T17:35:20.976Z,13.00
2018-01-24T17:37:48.875Z,13.00
2018-01-24T17:40:17.863Z,13.00
2018-01-24T17:42:45.819Z,13.00
2018-01-24T17:45:13.339Z,13.00
2018-01-24T17:47:40.856Z,12.90
2018-01-24T17:50:09.115Z,12.70
2018-01-24T17:52:37.255Z,13.00
2018-01-24T17:55:05.783Z,12.80
2018-01-24T17:57:33.297Z,12.80
2018-01-24T18:00:00.796Z,12.80
2018-01-24T18:02:29.735Z,12.80
2018-01-24T18:04:57.760Z,12.80
2018-01-24T18:07:25.955Z,12.80
2018-01-24T18:09:53.834Z,12.70
2018-01-24T18:12:22.068Z,12.70
2018-01-24T18:14:50.035Z,12.70
2018-01-24T18:17:17.940Z,12.70
2018-01-24T18:19:47.007Z,12.70
2018-01-24T18:22:15.370Z,12.70
2018-01-24T18:24:43.706Z,12.70
2018-01-24T18:27:12.603Z,12.70
2018-01-24T18:29:40.493Z,12.70
2018-01-24T18:32:08.374Z,12.70
2018-01-24T18:34:36.668Z,12.50
2018-01-24T18:37:04.935Z,12.60
2018-01-24T18:39:32.794Z,12.60
2018-01-24T18:42:00.337Z,12.60
2018-01-24T18:44:28.550Z,12.60
2018-01-24T18:46:56.423Z,12.60
2018-01-24T18:49:24.331Z,12.60
2018-01-24T18:51:52.961Z,12.60
2018-01-24T18:54:20.427Z,12.60
2018-01-24T18:56:48.296Z,12.00
2018-01-24T18:59:16.265Z,11.50
2018-01-24T19:01:43.814Z,11.10
2018-01-24T19:04:11.295Z,10.80
2018-01-24T19:06:39.192Z,10.60
2018-01-24T19:09:07.452Z,10.30
2018-01-24T19:11:34.959Z,10.20
2018-01-24T19:14:02.928Z,10.10
2018-01-24T19:16:30.861Z,9.90
2018-01-24T19:18:58.763Z,9.60
2018-01-24T19:21:26.411Z,9.40
2018-01-24T19:23:54.627Z,9.20
2018-01-24T19:26:22.499Z,8.80
2018-01-24T19:28:51.732Z,8.70
2018-01-24T19:31:19.223Z,8.70
2018-01-24T19:33:47.462Z,8.80
2018-01-24T19:36:16.160Z,8.80
2018-01-24T19:38:43.656Z,8.70
2018-01-24T19:41:11.152Z,8.80
2018-01-24T19:43:39.387Z,8.70
2018-01-24T19:46:06.849Z,8.80
2018-01-24T19:48:36.044Z,8.70
2018-01-24T19:51:03.932Z,8.70
2018-01-24T19:53:32.157Z,8.70
2018-01-24T19:56:01.839Z,8.60
2018-01-24T19:58:30.393Z,8.60
2018-01-24T20:00:58.616Z,8.60
2018-01-24T20:03:26.515Z,8.50
2018-01-24T20:05:54.844Z,8.50
2018-01-24T20:08:23.452Z,8.50
2018-01-24T20:10:51.505Z,8.50
2018-01-24T20:13:19.344Z,8.50
2018-01-24T20:15:47.578Z,8.40
2018-01-24T20:18:15.819Z,8.30
2018-01-24T20:20:43.534Z,8.40
2018-01-24T20:23:11.035Z,8.30
2018-01-24T20:25:38.906Z,8.30
2018-01-24T20:28:07.500Z,8.30
2018-01-24T20:30:34.991Z,8.40
2018-01-24T20:33:03.378Z,8.30
2018-01-24T20:35:31.384Z,8.30
2018-01-24T20:37:59.268Z,8.20
2018-01-24T20:40:27.219Z,8.10
2018-01-24T20:42:55.084Z,8.20
2018-01-24T20:45:22.980Z,8.10
2018-01-24T20:47:51.248Z,8.10
2018-01-24T20:50:18.788Z,8.10
2018-01-24T20:52:46.690Z,8.00
2018-01-24T20:55:14.573Z,8.00
2018-01-24T20:57:42.433Z,8.00
2018-01-24T21:00:10.304Z,8.10
2018-01-24T21:02:38.527Z,8.10
2018-01-24T21:05:06.004Z,8.00
2018-01-24T21:07:34.687Z,8.00
2018-01-24T21:10:02.153Z,8.00
2018-01-24T21:12:29.724Z,7.90
2018-01-24T21:14:58.707Z,8.00
2018-01-24T21:17:26.937Z,8.00
2018-01-24T21:19:54.483Z,7.90
2018-01-24T21:22:22.782Z,7.90
2018-01-24T21:24:51.035Z,8.00
2018-01-24T21:27:19.040Z,8.00
2018-01-24T21:29:59.458Z,8.00
2018-01-24T21:32:39.511Z,8.00
2018-01-24T21:35:17.131Z,8.00
2018-01-24T21:37:45.015Z,8.00
2018-01-24T21:40:13.252Z,8.00
2018-01-24T21:42:41.488Z,8.00
2018-01-24T21:45:09.018Z,8.00
2018-01-24T21:47:37.624Z,8.00
2018-01-24T21:50:05.925Z,8.00
2018-01-24T21:52:34.965Z,8.00
2018-01-24T21:55:02.451Z,8.00
2018-01-24T21:57:30.654Z,8.00
2018-01-24T21:59:58.899Z,8.00
2018-01-24T22:02:27.152Z,8.00
2018-01-24T22:04:55.095Z,8.00
2018-01-24T22:07:23.422Z,8.00
2018-01-24T22:09:51.667Z,8.10
2018-01-24T22:12:20.341Z,8.10
2018-01-24T22:14:48.603Z,8.10
2018-01-24T22:17:16.907Z,8.10
2018-01-24T22:19:44.399Z,8.10
2018-01-24T22:22:11.888Z,8.10
2018-01-24T22:24:40.141Z,8.10
2018-01-24T22:27:07.922Z,8.10
2018-01-24T22:29:36.180Z,8.10
2018-01-24T22:32:04.032Z,8.10
2018-01-24T22:34:31.529Z,8.10
2018-01-24T22:36:59.431Z,8.10
2018-01-24T22:39:26.944Z,8.10
2018-01-24T22:41:55.187Z,8.10
2018-01-24T22:44:22.714Z,8.10
2018-01-24T22:46:50.175Z,8.10
2018-01-24T22:49:18.752Z,8.10
2018-01-24T22:51:46.277Z,8.10
2018-01-24T22:54:13.974Z,8.10
2018-01-24T22:56:41.456Z,8.10
2018-01-24T22:59:08.970Z,8.10
2018-01-24T23:01:36.449Z,8.10
2018-01-24T23:04:04.007Z,8.10
2018-01-24T23:06:31.976Z,8.10
2018-01-24T23:09:00.164Z,8.00
2018-01-24T23:11:28.115Z,8.10
2018-01-24T23:13:55.947Z,8.00
2018-01-24T23:16:24.230Z,8.00
2018-01-24T23:18:52.518Z,8.00
2018-01-24T23:21:20.379Z,8.00
2018-01-24T23:23:48.267Z,8.00
2018-01-24T23:26:15.776Z,8.00
2018-01-24T23:28:44.019Z,8.00
2018-01-24T23:31:12.279Z,8.00
2018-01-24T23:33:40.548Z,8.00
2018-01-24T23:36:08.788Z,7.90
2018-01-24T23:38:37.018Z,8.00
2018-01-24T23:41:04.512Z,8.00
2018-01-24T23:43:32.369Z,8.00
2018-01-24T23:46:00.642Z,7.90
2018-01-24T23:48:29.228Z,7.90
2018-01-24T23:50:56.715Z,7.90
2018-01-24T23:53:24.575Z,7.90
2018-01-24T23:55:52.470Z,7.90
2018-01-24T23:58:20.339Z,7.80
